Time;durP1;ratioP1;P1;durP2;ratioP2;P2;SDS_P1;SDS_P2;PMS_P1;PMS_P2;Temp;Humidity;BMP_temperature;BMP_pressure;BME280_temperature;BME280_humidity;BME280_pressure;Samples;Min_cycle;Max_cycle;Signal;HPM_P1;HPM_P2
2022/11/16 00:01:11;;;;;;;11.07;7.15;;;12.10;99.90;;;;;;6128548;23;88282;-73
2022/11/16 00:03:38;;;;;;;9.63;8.07;;;12.10;99.90;;;;;;6076716;23;89473;-73
2022/11/16 00:06:08;;;;;;;8.40;7.60;;;12.10;99.90;;;;;;6101924;23;91009;-73
2022/11/16 00:08:42;;;;;;;9.13;7.70;;;12.10;99.90;;;;;;6128593;23;88749;-73
2022/11/16 00:11:13;;;;;;;8.88;7.88;;;12.10;99.90;;;;;;6126865;23;92990;-74
2022/11/16 00:13:42;;;;;;;10.35;8.70;;;12.10;99.90;;;;;;6101966;23;88013;-73
2022/11/16 00:16:17;;;;;;;10.05;8.45;;;12.10;99.90;;;;;;6128553;23;88363;-73
2022/11/16 00:18:44;;;;;;;8.90;7.53;;;12.20;99.90;;;;;;6101954;23;88767;-73
2022/11/16 00:21:11;;;;;;;8.45;7.65;;;12.10;99.90;;;;;;6128465;23;102496;-73
2022/11/16 00:23:38;;;;;;;10.88;8.63;;;12.10;99.90;;;;;;6128791;23;88379;-73
2022/11/16 00:26:06;;;;;;;9.88;8.88;;;12.20;99.90;;;;;;6127876;23;88494;-73
2022/11/16 00:28:33;;;;;;;14.63;8.27;;;12.20;99.90;;;;;;6127915;23;88702;-74
2022/11/16 00:31:02;;;;;;;10.13;8.10;;;12.20;99.90;;;;;;6101447;23;92107;-74
2022/11/16 00:33:29;;;;;;;8.07;7.13;;;12.10;99.90;;;;;;6126471;23;89252;-73
2022/11/16 00:35:56;;;;;;;8.82;7.57;;;12.10;99.90;;;;;;6077080;23;90885;-73
2022/11/16 00:38:23;;;;;;;9.07;7.45;;;12.10;99.90;;;;;;6128456;23;88932;-73
2022/11/16 00:40:50;;;;;;;7.38;6.15;;;12.10;99.90;;;;;;6101771;23;88027;-73
2022/11/16 00:43:17;;;;;;;8.30;6.93;;;12.10;99.90;;;;;;6101852;23;88928;-73
2022/11/16 00:45:44;;;;;;;8.48;6.85;;;12.10;99.90;;;;;;6077283;23;91017;-73
2022/11/16 00:48:12;;;;;;;8.27;7.47;;;12.10;99.90;;;;;;6077193;23;90141;-73
2022/11/16 00:50:39;;;;;;;8.40;6.75;;;12.10;99.90;;;;;;6101485;23;90987;-73
2022/11/16 00:53:09;;;;;;;8.05;7.25;;;12.10;99.90;;;;;;6101253;23;89160;-73
2022/11/16 00:55:36;;;;;;;6.65;6.03;;;12.20;99.90;;;;;;6101369;23;91099;-73
2022/11/16 00:58:03;;;;;;;9.48;8.27;;;12.20;99.90;;;;;;6101342;23;91456;-73
2022/11/16 01:00:30;;;;;;;8.43;7.00;;;12.20;99.90;;;;;;6077288;23;90894;-73
2022/11/16 01:02:57;;;;;;;7.90;6.80;;;12.30;99.90;;;;;;6101347;23;89355;-73
2022/11/16 01:05:24;;;;;;;8.20;7.40;;;12.20;99.90;;;;;;6077186;23;91140;-73
2022/11/16 01:07:52;;;;;;;7.50;6.70;;;12.30;99.90;;;;;;6101494;23;91380;-73
2022/11/16 01:10:21;;;;;;;9.77;6.80;;;12.30;99.90;;;;;;6126715;23;90965;-73
2022/11/16 01:12:49;;;;;;;6.45;5.65;;;12.30;99.90;;;;;;6128182;23;87910;-73
2022/11/16 01:15:18;;;;;;;6.90;6.10;;;12.30;99.90;;;;;;6101248;23;91147;-73
2022/11/16 01:17:45;;;;;;;8.30;6.55;;;12.30;99.90;;;;;;6100925;23;92148;-73
2022/11/16 01:20:15;;;;;;;6.53;5.57;;;12.30;99.90;;;;;;6076713;23;95436;-73
2022/11/16 01:22:43;;;;;;;6.47;5.85;;;12.30;99.90;;;;;;6101571;23;89181;-73
2022/11/16 01:25:11;;;;;;;6.88;6.18;;;12.30;99.90;;;;;;6125813;23;89352;-74
2022/11/16 01:27:39;;;;;;;7.70;6.88;;;12.30;99.90;;;;;;6101230;23;91317;-73
2022/11/16 01:30:13;;;;;;;7.35;6.18;;;12.40;99.90;;;;;;6077485;23;90560;-73
2022/11/16 01:32:45;;;;;;;6.55;6.03;;;12.40;99.90;;;;;;6103107;23;88058;-73
2022/11/16 01:35:16;;;;;;;7.35;5.90;;;12.40;99.90;;;;;;6101423;23;90996;-73
2022/11/16 01:37:44;;;;;;;6.65;5.97;;;12.40;99.90;;;;;;6076763;23;91415;-73
2022/11/16 01:40:12;;;;;;;8.18;5.85;;;12.40;99.90;;;;;;6100828;23;89870;-73
2022/11/16 01:42:41;;;;;;;10.63;6.32;;;12.40;99.90;;;;;;6101020;23;88893;-74
2022/11/16 01:45:36;;;;;;;6.03;5.47;;;12.40;99.90;;;;;;6052532;23;91027;-73
2022/11/16 01:48:06;;;;;;;6.63;5.43;;;12.50;99.90;;;;;;6100898;23;91234;-73
2022/11/16 01:50:34;;;;;;;5.97;5.38;;;12.50;99.90;;;;;;6077258;23;91294;-73
2022/11/16 01:53:04;;;;;;;9.30;5.88;;;12.50;99.90;;;;;;6076542;23;89384;-73
2022/11/16 01:55:41;;;;;;;6.70;6.00;;;12.50;99.90;;;;;;6126272;23;89582;-73
2022/11/16 01:58:22;;;;;;;7.10;5.72;;;12.50;99.90;;;;;;6100739;23;90428;-73
2022/11/16 02:00:55;;;;;;;6.38;5.57;;;12.50;99.90;;;;;;6101466;23;90899;-73
2022/11/16 02:03:30;;;;;;;6.65;4.97;;;12.50;99.90;;;;;;6078826;23;89085;-73
2022/11/16 02:06:18;;;;;;;6.45;5.75;;;12.50;99.90;;;;;;6127733;23;88264;-73
2022/11/16 02:12:21;;;;;;;5.97;5.38;;;12.50;99.90;;;;;;6100987;23;90984;-73
2022/11/16 02:14:57;;;;;;;6.25;5.68;;;12.50;99.90;;;;;;6101339;23;89131;-73
2022/11/16 02:17:39;;;;;;;7.80;6.57;;;12.40;99.90;;;;;;6101122;23;90935;-73
2022/11/16 02:20:23;;;;;;;8.32;6.07;;;12.40;99.90;;;;;;6100980;23;91482;-73
2022/11/16 02:23:25;;;;;;;7.53;6.40;;;12.40;99.90;;;;;;6101239;23;90988;-73
2022/11/16 02:26:10;;;;;;;5.45;4.95;;;12.40;99.90;;;;;;6037030;23;88110;-73
2022/11/16 02:29:02;;;;;;;8.77;6.82;;;12.20;99.90;;;;;;6101710;23;88233;-73
2022/11/16 02:31:36;;;;;;;10.73;6.78;;;12.30;99.90;;;;;;6101333;23;87998;-73
2022/11/16 02:34:04;;;;;;;;;;;12.30;99.90;;;;;;6128341;23;88592;-73
2022/11/16 02:36:33;;;;;;;9.20;6.72;;;12.10;99.90;;;;;;6101841;23;89392;-73
2022/11/16 02:39:04;;;;;;;7.18;6.38;;;12.10;99.90;;;;;;6100840;23;90688;-73
2022/11/16 02:41:35;;;;;;;6.40;5.80;;;12.20;99.90;;;;;;6101033;23;91557;-73
2022/11/16 02:44:09;;;;;;;7.47;6.70;;;12.20;99.90;;;;;;6101103;23;88706;-73
2022/11/16 02:46:39;;;;;;;7.28;6.57;;;12.20;99.90;;;;;;6077053;23;89204;-73
2022/11/16 02:49:13;;;;;;;8.13;6.95;;;12.20;99.90;;;;;;6100765;23;91219;-73
2022/11/16 02:51:41;;;;;;;6.72;5.85;;;12.20;99.90;;;;;;6129002;23;88446;-73
2022/11/16 02:54:13;;;;;;;6.85;6.25;;;12.20;99.90;;;;;;6129148;23;89404;-73
2022/11/16 02:56:52;;;;;;;8.45;6.68;;;12.20;99.90;;;;;;6102295;23;89007;-73
2022/11/16 02:59:27;;;;;;;6.95;6.25;;;12.20;99.90;;;;;;6101797;23;90994;-73
2022/11/16 03:02:33;;;;;;;7.78;6.40;;;12.20;99.90;;;;;;6077271;23;91896;-73
2022/11/16 03:05:06;;;;;;;10.27;5.53;;;12.20;99.90;;;;;;6069491;23;91672;-73
2022/11/16 03:07:54;;;;;;;7.63;6.82;;;12.20;99.90;;;;;;6079178;23;89207;-73
2022/11/16 03:13:10;;;;;;;8.05;6.78;;;12.10;99.90;;;;;;6102002;23;90048;-73
2022/11/16 03:15:40;;;;;;;9.30;7.28;;;12.10;99.90;;;;;;6101881;23;91083;-73
2022/11/16 03:18:14;;;;;;;7.07;6.03;;;12.10;99.90;;;;;;6101591;23;88576;-73
2022/11/16 03:20:43;;;;;;;7.90;6.72;;;12.10;99.90;;;;;;6078248;23;90541;-73
2022/11/16 03:23:11;;;;;;;8.35;7.07;;;12.10;99.90;;;;;;6101499;23;91315;-73
2022/11/16 03:25:50;;;;;;;8.80;7.45;;;12.10;99.90;;;;;;6101910;23;91137;-73
2022/11/16 03:28:28;;;;;;;7.88;7.03;;;12.10;99.90;;;;;;6101455;23;89406;-73
2022/11/16 03:31:04;;;;;;;9.45;7.57;;;12.10;99.90;;;;;;6101692;23;89213;-73
2022/11/16 03:33:35;;;;;;;;;;;12.10;99.90;;;;;;6102724;23;90965;-73
2022/11/16 03:36:10;;;;;;;8.05;7.18;;;12.00;99.90;;;;;;6078847;23;90086;-73
2022/11/16 03:38:38;;;;;;;;;;;12.00;99.90;;;;;;6103068;23;88063;-73
2022/11/16 03:41:08;;;;;;;8.00;7.05;;;11.90;99.90;;;;;;6103350;23;90889;-73
2022/11/16 03:43:37;;;;;;;11.60;7.95;;;11.90;99.90;;;;;;6101680;23;89635;-73
2022/11/16 03:46:05;;;;;;;10.13;7.65;;;11.90;99.90;;;;;;6126887;23;90903;-73
2022/11/16 03:48:37;;;;;;;9.07;6.70;;;12.00;99.90;;;;;;6076914;23;88488;-73
2022/11/16 03:51:11;;;;;;;9.18;8.20;;;12.00;99.90;;;;;;6101773;23;90723;-73
2022/11/16 03:53:39;;;;;;;8.00;7.15;;;11.90;99.90;;;;;;6101292;23;91758;-73
2022/11/16 03:56:08;;;;;;;10.68;8.82;;;12.00;99.90;;;;;;6101803;23;91621;-73
2022/11/16 03:58:35;;;;;;;12.77;9.45;;;12.00;99.90;;;;;;6102396;23;88027;-73
2022/11/16 04:01:02;;;;;;;9.15;8.27;;;12.00;99.90;;;;;;6101385;23;91286;-73
2022/11/16 04:03:29;;;;;;;8.95;8.02;;;12.00;99.90;;;;;;6077072;23;90987;-73
2022/11/16 04:25:40;;;;;;;12.23;10.15;;;12.00;99.90;;;;;;6101620;23;91503;-73
2022/11/16 04:28:15;;;;;;;10.10;8.82;;;12.00;99.90;;;;;;6100883;23;91852;-73
2022/11/16 04:39:35;;;;;;;12.32;9.75;;;12.10;99.90;;;;;;6100809;23;92195;-73
2022/11/16 04:42:13;;;;;;;12.18;10.57;;;12.10;99.90;;;;;;6077346;23;90002;-73
2022/11/16 04:47:33;;;;;;;11.40;9.95;;;12.10;99.90;;;;;;6080885;23;91906;-73
2022/11/16 04:50:01;;;;;;;12.88;9.70;;;12.10;99.90;;;;;;6077412;23;91469;-73
2022/11/16 04:52:28;;;;;;;11.57;9.68;;;12.00;99.90;;;;;;6128288;23;87924;-73
2022/11/16 04:54:55;;;;;;;11.88;10.40;;;12.00;99.90;;;;;;6101782;23;91227;-74
2022/11/16 04:57:22;;;;;;;10.88;8.43;;;12.10;99.90;;;;;;6100516;23;90072;-73
2022/11/16 04:59:50;;;;;;;12.75;10.70;;;12.10;99.90;;;;;;6101474;23;90793;-73
2022/11/16 05:02:17;;;;;;;12.43;9.70;;;12.10;99.90;;;;;;6076589;23;89016;-73
2022/11/16 05:04:53;;;;;;;12.07;10.20;;;12.10;99.90;;;;;;6079877;23;90698;-73
2022/11/16 05:07:21;;;;;;;12.38;9.20;;;12.10;99.90;;;;;;6076180;23;91093;-73
2022/11/16 05:09:50;;;;;;;10.23;8.90;;;12.00;99.90;;;;;;6077226;23;90620;-73
2022/11/16 05:12:22;;;;;;;11.20;9.63;;;12.00;99.90;;;;;;6101105;23;89511;-73
2022/11/16 05:14:56;;;;;;;10.52;9.43;;;12.00;99.90;;;;;;6101713;23;89740;-73
2022/11/16 05:17:26;;;;;;;13.20;10.07;;;12.00;99.90;;;;;;6101589;23;91355;-73
2022/11/16 05:22:57;;;;;;;10.85;9.75;;;12.00;99.90;;;;;;6101587;23;90331;-73
2022/11/16 05:25:29;;;;;;;12.07;9.88;;;12.10;99.90;;;;;;6100694;23;90341;-73
2022/11/16 05:28:03;;;;;;;14.30;9.68;;;12.00;99.90;;;;;;6078076;23;90643;-73
2022/11/16 05:30:32;;;;;;;13.73;11.57;;;12.00;99.90;;;;;;6101371;23;90937;-73
2022/11/16 05:33:02;;;;;;;14.23;10.35;;;12.00;99.90;;;;;;6100386;23;88851;-73
2022/11/16 05:35:32;;;;;;;11.73;10.50;;;12.00;99.90;;;;;;6076519;23;90508;-73
2022/11/16 05:38:00;;;;;;;15.32;12.48;;;12.10;99.90;;;;;;6100245;23;90800;-73
2022/11/16 05:40:27;;;;;;;15.77;11.07;;;12.10;99.90;;;;;;6100045;23;91725;-73
2022/11/16 05:42:57;;;;;;;13.77;11.27;;;12.10;99.90;;;;;;6076333;23;91171;-73
2022/11/16 05:45:27;;;;;;;14.10;12.18;;;12.10;99.90;;;;;;6076171;23;90630;-73
2022/11/16 05:47:54;;;;;;;12.38;11.07;;;12.10;99.90;;;;;;6100281;23;90855;-73
2022/11/16 05:50:21;;;;;;;14.18;10.52;;;12.10;99.90;;;;;;6100288;23;91779;-73
2022/11/16 05:53:01;;;;;;;14.13;10.90;;;12.20;99.90;;;;;;6079042;23;91440;-73
2022/11/16 05:55:28;;;;;;;12.68;11.02;;;12.20;99.90;;;;;;6100337;23;90824;-73
2022/11/16 05:57:55;;;;;;;12.75;11.45;;;12.20;99.90;;;;;;6100607;23;91389;-73
2022/11/16 06:00:22;;;;;;;14.65;11.90;;;12.20;99.90;;;;;;6075937;23;91821;-74
2022/11/16 06:02:51;;;;;;;14.38;11.98;;;12.20;99.90;;;;;;6099569;23;92248;-73
2022/11/16 06:05:23;;;;;;;13.10;11.23;;;12.20;99.90;;;;;;6077253;23;90466;-73
2022/11/16 06:07:50;;;;;;;11.90;10.57;;;12.20;99.90;;;;;;6099844;23;90741;-73
2022/11/16 06:10:17;;;;;;;15.05;12.20;;;12.20;99.90;;;;;;6075829;23;91586;-73
2022/11/16 06:12:47;;;;;;;13.40;12.07;;;12.20;99.90;;;;;;6100305;23;90908;-73
2022/11/16 06:15:14;;;;;;;15.98;12.10;;;12.20;99.90;;;;;;6075728;23;89239;-73
2022/11/16 06:17:41;;;;;;;13.25;11.85;;;12.20;99.90;;;;;;6100237;23;90354;-73
2022/11/16 06:20:10;;;;;;;13.40;12.00;;;12.20;99.90;;;;;;6100305;23;91339;-73
2022/11/16 06:22:37;;;;;;;13.70;12.27;;;12.20;99.90;;;;;;6099778;23;90054;-73
2022/11/16 06:25:08;;;;;;;14.27;12.80;;;12.20;99.90;;;;;;6051590;23;90578;-73
2022/11/16 06:27:39;;;;;;;;;;;12.30;99.90;;;;;;6072548;23;91728;-73
2022/11/16 06:30:08;;;;;;;14.75;13.10;;;12.20;99.90;;;;;;6097675;23;90096;-73
2022/11/16 06:32:35;;;;;;;13.68;12.18;;;12.20;99.90;;;;;;6071240;23;88444;-73
2022/11/16 06:35:04;;;;;;;19.33;15.57;;;12.20;99.90;;;;;;6095360;23;91054;-73
2022/11/16 06:37:32;;;;;;;19.02;13.43;;;12.20;99.90;;;;;;6095583;23;91092;-73
2022/11/16 06:39:59;;;;;;;15.48;13.65;;;12.20;99.90;;;;;;6071073;23;91992;-73
2022/11/16 06:42:27;;;;;;;15.48;13.60;;;12.20;99.90;;;;;;6071275;23;89935;-73
2022/11/16 06:44:54;;;;;;;16.17;14.15;;;12.20;99.90;;;;;;6071148;23;89990;-73
2022/11/16 06:47:26;;;;;;;15.43;13.75;;;12.20;99.90;;;;;;6072364;23;90823;-73
2022/11/16 06:49:53;;;;;;;15.60;13.77;;;12.20;99.90;;;;;;6095017;23;91979;-73
2022/11/16 06:52:22;;;;;;;16.00;13.23;;;12.20;99.90;;;;;;6071009;23;91572;-73
2022/11/16 06:54:49;;;;;;;17.00;14.05;;;12.30;99.90;;;;;;6070907;23;90577;-73
2022/11/16 06:57:17;;;;;;;15.88;14.27;;;12.30;99.90;;;;;;6095296;23;90931;-74
2022/11/16 06:59:44;;;;;;;15.30;13.68;;;12.30;99.90;;;;;;6095043;23;91674;-73
2022/11/16 07:02:11;;;;;;;17.02;13.90;;;12.20;99.90;;;;;;6095180;23;91378;-74
2022/11/16 07:04:39;;;;;;;15.95;14.13;;;12.30;99.90;;;;;;6070696;23;89264;-73
2022/11/16 07:07:06;;;;;;;20.10;16.15;;;12.20;99.90;;;;;;6092671;23;95741;-74
2022/11/16 07:09:34;;;;;;;15.23;13.23;;;12.20;99.90;;;;;;6092903;23;96022;-73
2022/11/16 07:12:03;;;;;;;19.08;16.85;;;12.20;99.90;;;;;;6092978;23;92370;-73
2022/11/16 07:14:34;;;;;;;21.10;16.40;;;12.20;99.90;;;;;;6092615;23;92386;-73
2022/11/16 07:17:03;;;;;;;17.90;15.15;;;12.30;99.90;;;;;;6090701;23;96468;-73
2022/11/16 07:19:35;;;;;;;17.42;15.48;;;12.30;99.90;;;;;;6069195;23;97980;-74
2022/11/16 07:22:03;;;;;;;17.38;15.55;;;12.30;99.90;;;;;;6067911;23;92415;-73
2022/11/16 07:24:30;;;;;;;14.02;12.48;;;12.30;99.90;;;;;;6068347;23;92464;-73
2022/11/16 07:26:57;;;;;;;16.13;14.45;;;12.30;99.90;;;;;;6091932;23;95540;-74
2022/11/16 07:29:27;;;;;;;15.80;13.88;;;12.20;99.90;;;;;;6092102;23;95545;-74
2022/11/16 07:32:23;;;;;;;14.38;12.85;;;12.20;99.90;;;;;;6073596;23;92473;-73
2022/11/16 07:34:58;;;;;;;14.02;12.30;;;12.20;99.90;;;;;;6092961;23;91767;-74
2022/11/16 07:37:26;;;;;;;14.38;12.85;;;12.20;99.90;;;;;;6068924;23;95521;-74
2022/11/16 07:39:53;;;;;;;11.57;10.43;;;12.30;99.90;;;;;;6093427;23;95369;-73
2022/11/16 07:42:22;;;;;;;12.02;10.65;;;12.30;99.90;;;;;;6094193;23;94728;-74
2022/11/16 07:45:09;;;;;;;14.15;11.90;;;12.30;99.90;;;;;;6021063;23;93892;-74
2022/11/16 07:47:41;;;;;;;13.23;11.73;;;12.20;99.90;;;;;;6094041;23;95176;-73
2022/11/16 07:50:16;;;;;;;14.48;12.20;;;12.30;99.90;;;;;;6093484;23;93791;-73
2022/11/16 07:52:45;;;;;;;11.55;10.35;;;12.30;99.90;;;;;;6093626;23;92321;-74
2022/11/16 07:55:20;;;;;;;11.90;10.73;;;12.30;99.90;;;;;;6093990;23;92471;-74
2022/11/16 07:57:49;;;;;;;11.82;10.45;;;12.30;99.90;;;;;;6093338;23;95084;-74
2022/11/16 08:00:19;;;;;;;12.32;11.13;;;12.30;99.90;;;;;;6070215;23;94907;-74
2022/11/16 08:02:55;;;;;;;12.50;11.30;;;12.30;99.90;;;;;;6071335;23;92423;-74
2022/11/16 08:05:22;;;;;;;13.40;11.90;;;12.30;99.90;;;;;;6095675;23;92391;-74
2022/11/16 08:07:50;;;;;;;13.90;12.48;;;12.30;99.90;;;;;;6067324;23;97968;-74
2022/11/16 08:10:21;;;;;;;14.95;13.32;;;12.30;99.90;;;;;;6093036;23;96451;-74
2022/11/16 08:12:49;;;;;;;14.25;12.75;;;12.30;99.90;;;;;;6093420;23;92450;-74
2022/11/16 08:15:17;;;;;;;16.50;14.80;;;12.30;99.90;;;;;;6092897;23;92716;-74
2022/11/16 08:17:44;;;;;;;17.60;14.82;;;12.30;99.90;;;;;;6095409;23;93012;-74
2022/11/16 08:20:12;;;;;;;15.50;13.88;;;12.20;99.90;;;;;;6093638;23;95233;-74
2022/11/16 08:22:40;;;;;;;19.10;15.93;;;12.20;99.90;;;;;;6093816;23;92896;-74
2022/11/16 08:25:08;;;;;;;17.05;14.95;;;12.30;99.90;;;;;;6093886;23;91712;-74
2022/11/16 08:27:36;;;;;;;16.52;14.85;;;12.30;99.90;;;;;;6118021;23;94359;-74
2022/11/16 08:30:08;;;;;;;18.08;16.20;;;12.30;99.90;;;;;;6068831;23;95195;-74
2022/11/16 08:32:37;;;;;;;18.83;16.00;;;12.30;99.90;;;;;;6092104;23;94862;-74
2022/11/16 08:35:05;;;;;;;17.15;15.30;;;12.30;99.90;;;;;;6093447;23;92526;-74
2022/11/16 08:37:33;;;;;;;115.53;77.68;;;12.30;99.90;;;;;;6093251;23;95164;-74
2022/11/16 08:40:02;;;;;;;83.75;71.65;;;12.30;99.90;;;;;;6095068;23;92960;-74
2022/11/16 08:42:30;;;;;;;23.38;19.52;;;12.30;99.90;;;;;;6069628;23;92535;-74
2022/11/16 08:44:58;;;;;;;90.20;56.38;;;12.30;99.90;;;;;;6093210;23;92427;-74
2022/11/16 08:47:25;;;;;;;218.52;148.82;;;12.30;99.90;;;;;;6093281;23;95551;-74
2022/11/16 08:49:54;;;;;;;48.78;43.88;;;12.30;99.90;;;;;;6068723;23;95773;-74
2022/11/16 08:52:23;;;;;;;58.63;53.88;;;12.30;99.90;;;;;;6069370;23;93781;-74
2022/11/16 08:54:52;;;;;;;30.02;27.13;;;12.40;99.90;;;;;;6093334;23;92479;-74
2022/11/16 08:57:19;;;;;;;39.28;35.45;;;12.50;99.90;;;;;;6093624;23;95509;-74
2022/11/16 08:59:51;;;;;;;25.40;22.75;;;12.50;99.90;;;;;;6069888;23;97360;-74
2022/11/16 09:02:24;;;;;;;38.95;35.42;;;12.50;99.90;;;;;;6093623;23;92466;-74
2022/11/16 09:04:52;;;;;;;31.70;28.53;;;12.60;99.90;;;;;;6093727;23;92429;-74
2022/11/16 09:07:19;;;;;;;28.45;25.75;;;12.60;99.90;;;;;;6095156;23;93349;-74
2022/11/16 09:09:47;;;;;;;25.10;22.67;;;12.60;99.90;;;;;;6068883;23;94087;-74
2022/11/16 09:12:13;;;;;;;21.20;18.92;;;12.70;99.90;;;;;;6093583;23;92345;-74
2022/11/16 09:14:40;;;;;;;19.05;17.05;;;12.70;99.90;;;;;;6094116;23;92269;-74
2022/11/16 09:17:07;;;;;;;18.52;16.63;;;12.80;99.90;;;;;;6094851;23;93185;-74
2022/11/16 09:19:34;;;;;;;19.48;16.67;;;12.70;99.90;;;;;;6095159;23;93068;-74
2022/11/16 09:22:01;;;;;;;18.30;16.17;;;12.80;99.90;;;;;;6091698;23;94877;-74
2022/11/16 09:24:28;;;;;;;17.20;15.45;;;12.80;99.90;;;;;;6093527;23;92518;-74
2022/11/16 09:26:56;;;;;;;15.45;13.88;;;12.90;99.90;;;;;;6110337;23;93237;-74
2022/11/16 09:29:23;;;;;;;21.33;19.15;;;12.90;99.90;;;;;;6124593;23;93022;-74
2022/11/16 09:31:50;;;;;;;18.73;16.98;;;12.90;99.90;;;;;;6124892;23;92376;-74
2022/11/16 09:34:17;;;;;;;27.77;25.27;;;12.90;99.90;;;;;;6098055;23;92725;-74
2022/11/16 09:36:44;;;;;;;16.88;15.20;;;13.00;99.90;;;;;;6097822;23;95774;-74
2022/11/16 09:39:12;;;;;;;15.00;13.57;;;13.00;99.90;;;;;;6124910;23;92913;-74
2022/11/16 09:42:21;;;;;;;15.85;14.27;;;13.00;99.90;;;;;;6098176;23;92568;-74
2022/11/16 09:44:48;;;;;;;17.13;15.10;;;13.10;99.90;;;;;;6123263;23;92484;-74
2022/11/16 09:47:25;;;;;;;18.30;16.38;;;13.10;99.90;;;;;;6096716;23;95386;-74
2022/11/16 09:49:53;;;;;;;16.90;14.63;;;13.20;99.90;;;;;;6098376;23;95242;-74
2022/11/16 09:52:33;;;;;;;16.95;15.15;;;13.20;99.90;;;;;;6098243;23;93047;-74
2022/11/16 09:55:18;;;;;;;17.17;15.40;;;13.20;99.90;;;;;;6124696;23;92416;-74
2022/11/16 09:57:46;;;;;;;16.77;14.98;;;13.20;99.90;;;;;;6098095;23;93161;-74
2022/11/16 10:00:18;;;;;;;16.58;14.80;;;13.20;99.90;;;;;;6097276;23;93053;-74
2022/11/16 10:02:51;;;;;;;146.25;91.28;;;13.20;99.90;;;;;;6124835;23;92324;-74
2022/11/16 10:05:26;;;;;;;40.67;32.37;;;13.30;99.90;;;;;;6073710;23;91670;-74
2022/11/16 10:08:26;;;;;;;168.80;128.45;;;13.30;99.90;;;;;;6097961;23;94361;-74
2022/11/16 10:11:21;;;;;;;32.72;29.63;;;13.50;99.90;;;;;;6097059;23;94286;-74
2022/11/16 10:14:26;;;;;;;15.02;13.52;;;13.60;99.90;;;;;;6123390;23;95086;-74
2022/11/16 10:17:03;;;;;;;17.10;15.27;;;13.60;99.90;;;;;;6098179;23;92480;-74
2022/11/16 10:19:52;;;;;;;17.75;15.95;;;13.60;99.90;;;;;;6098089;23;92808;-74
2022/11/16 10:22:49;;;;;;;15.57;14.07;;;13.60;99.90;;;;;;6097883;23;92910;-74
2022/11/16 10:25:23;;;;;;;16.10;14.50;;;13.70;99.90;;;;;;6074162;23;92993;-74
2022/11/16 10:28:04;;;;;;;28.20;20.13;;;13.70;99.90;;;;;;6097853;23;92960;-74
2022/11/16 10:30:43;;;;;;;18.98;16.95;;;13.80;99.90;;;;;;6124330;23;93195;-74
2022/11/16 10:33:16;;;;;;;15.55;14.05;;;13.90;99.90;;;;;;6124822;23;92937;-74
2022/11/16 10:35:53;;;;;;;17.52;15.93;;;13.90;99.90;;;;;;6124532;23;92301;-74
2022/11/16 10:38:29;;;;;;;16.92;15.25;;;14.10;99.90;;;;;;6098673;23;92310;-74
2022/11/16 10:41:04;;;;;;;15.10;13.60;;;14.10;99.90;;;;;;6122834;23;95816;-74
2022/11/16 10:43:31;;;;;;;16.60;14.95;;;14.20;99.90;;;;;;6124105;23;97941;-74
2022/11/16 10:46:19;;;;;;;14.55;13.25;;;14.30;99.90;;;;;;6124637;23;92463;-74
2022/11/16 10:49:01;;;;;;;13.77;12.48;;;14.50;99.90;;;;;;6124556;23;92311;-74
2022/11/16 10:51:28;;;;;;;12.18;11.00;;;14.50;99.90;;;;;;6123901;23;93148;-74
2022/11/16 10:53:55;;;;;;;14.98;12.20;;;14.60;99.90;;;;;;6097636;23;93227;-74
2022/11/16 10:56:30;;;;;;;24.67;22.65;;;14.60;99.90;;;;;;6097504;23;93141;-74
2022/11/16 10:59:02;;;;;;;16.48;14.98;;;14.60;99.90;;;;;;6097965;23;92131;-74
2022/11/16 11:01:35;;;;;;;12.93;11.73;;;14.70;99.90;;;;;;6124146;23;93153;-74
2022/11/16 11:04:23;;;;;;;14.35;11.43;;;14.80;99.90;;;;;;6124075;23;92368;-74
2022/11/16 11:06:57;;;;;;;12.65;10.80;;;14.80;99.90;;;;;;6096493;23;95333;-74
2022/11/16 11:09:29;;;;;;;13.75;9.77;;;14.80;99.90;;;;;;6122724;23;92987;-74
2022/11/16 11:15:04;;;;;;;11.45;9.40;;;14.70;99.90;;;;;;6098743;23;95563;-74
2022/11/16 11:17:33;;;;;;;11.13;9.43;;;14.60;99.90;;;;;;6125985;23;92293;-74
2022/11/16 11:20:04;;;;;;;11.75;8.52;;;14.60;99.90;;;;;;6099669;23;92411;-74
2022/11/16 11:22:34;;;;;;;9.20;8.10;;;14.60;99.90;;;;;;6099279;23;95756;-74
2022/11/16 11:25:02;;;;;;;10.40;7.63;;;14.60;99.90;;;;;;6126427;23;92975;-74
2022/11/16 11:27:34;;;;;;;9.00;6.75;;;14.50;99.90;;;;;;6125071;23;97290;-74
2022/11/16 11:30:01;;;;;;;8.90;7.15;;;14.50;99.90;;;;;;6126231;23;92664;-74
2022/11/16 11:32:37;;;;;;;11.02;6.97;;;14.40;99.90;;;;;;6097891;23;95438;-74
2022/11/16 11:35:05;;;;;;;7.90;6.53;;;14.40;99.90;;;;;;6099415;23;96894;-74
2022/11/16 11:37:37;;;;;;;6.95;6.20;;;14.20;99.90;;;;;;6126034;23;92291;-74
2022/11/16 11:40:26;;;;;;;10.30;6.47;;;14.20;99.90;;;;;;6099332;23;92562;-74
2022/11/16 11:43:01;;;;;;;6.93;5.53;;;14.20;99.90;;;;;;6099396;23;93125;-74
2022/11/16 11:45:30;;;;;;;7.57;5.55;;;14.10;99.90;;;;;;6125657;23;92335;-74
2022/11/16 11:48:01;;;;;;;9.10;5.43;;;14.00;99.90;;;;;;6100015;23;92804;-74
2022/11/16 11:50:31;;;;;;;7.32;5.75;;;14.00;99.90;;;;;;6126440;23;91884;-74
2022/11/16 11:53:06;;;;;;;6.68;5.45;;;14.10;99.90;;;;;;6098979;23;94701;-74
2022/11/16 11:55:33;;;;;;;7.22;5.65;;;14.10;99.90;;;;;;6123666;23;93019;-74
2022/11/16 11:58:03;;;;;;;12.10;4.93;;;14.20;99.90;;;;;;6098250;23;94824;-74
2022/11/16 12:00:41;;;;;;;7.80;4.72;;;14.30;99.90;;;;;;6098780;23;92412;-74
2022/11/16 12:03:30;;;;;;;6.18;4.72;;;14.50;99.90;;;;;;6099501;23;95770;-74
2022/11/16 12:06:14;;;;;;;7.72;5.03;;;14.60;99.90;;;;;;6125891;23;93042;-74
2022/11/16 12:09:22;;;;;;;6.82;4.32;;;14.80;99.90;;;;;;6125911;23;92388;-74
2022/11/16 12:12:06;;;;;;;7.68;3.67;;;14.80;99.90;;;;;;6125823;23;92377;-74
2022/11/16 12:15:20;;;;;;;5.88;4.30;;;14.90;99.90;;;;;;6125543;23;93168;-74
2022/11/16 12:18:13;;;;;;;9.25;4.22;;;15.20;99.90;;;;;;6099704;23;92698;-74
2022/11/16 12:20:58;;;;;;;5.72;3.45;;;15.30;99.90;;;;;;6125776;23;92355;-74
2022/11/16 12:23:55;;;;;;;9.13;4.20;;;15.40;99.90;;;;;;6098962;23;92381;-74
2022/11/16 12:26:59;;;;;;;6.13;3.70;;;15.60;99.90;;;;;;6072758;23;98047;-74
2022/11/16 12:29:36;;;;;;;7.55;3.58;;;15.70;99.90;;;;;;6098894;23;95463;-74
2022/11/16 12:32:20;;;;;;;9.82;3.38;;;15.80;99.90;;;;;;6125831;23;92282;-74
2022/11/16 12:35:03;;;;;;;6.53;3.30;;;15.90;99.90;;;;;;6125819;23;92299;-74
2022/11/16 12:37:39;;;;;;;5.40;3.50;;;16.00;99.90;;;;;;6074283;23;96194;-74
2022/11/16 12:40:25;;;;;;;18.95;17.15;;;16.10;99.90;;;;;;6125597;23;92678;-74
2022/11/16 12:43:19;;;;;;;10.05;4.05;;;16.00;99.90;;;;;;6125316;23;92692;-74
2022/11/16 12:46:11;;;;;;;5.53;2.70;;;16.00;99.90;;;;;;6099315;23;91717;-74
2022/11/16 12:49:03;;;;;;;6.45;3.30;;;16.00;99.90;;;;;;6125273;23;92995;-74
2022/11/16 12:51:54;;;;;;;7.07;3.35;;;16.00;99.90;;;;;;6125184;23;92956;-74
2022/11/16 12:54:37;;;;;;;7.50;3.83;;;16.00;99.90;;;;;;6097770;23;94875;-74
2022/11/16 12:57:22;;;;;;;6.20;3.05;;;16.00;99.90;;;;;;6125983;23;92911;-74
2022/11/16 13:00:09;;;;;;;5.78;3.45;;;16.20;99.90;;;;;;6074161;23;96246;-74
2022/11/16 13:03:12;;;;;;;6.10;3.25;;;16.20;99.90;;;;;;6099043;23;92913;-74
2022/11/16 13:05:54;;;;;;;7.65;3.22;;;16.30;99.90;;;;;;6099246;23;92488;-74
2022/11/16 13:08:37;;;;;;;7.55;3.35;;;16.20;99.90;;;;;;6123652;23;92470;-74
2022/11/16 13:11:12;;;;;;;7.35;2.45;;;16.20;99.90;;;;;;6099046;23;94570;-74
2022/11/16 13:13:41;;;;;;;10.55;2.47;;;16.30;99.90;;;;;;6099113;23;96819;-74
2022/11/16 13:16:09;;;;;;;7.15;2.78;;;16.30;99.90;;;;;;6125826;23;92461;-74
2022/11/16 13:18:40;;;;;;;9.02;2.75;;;16.30;99.90;;;;;;6125622;23;92364;-74
2022/11/16 13:21:15;;;;;;;4.63;1.95;;;16.30;99.90;;;;;;6097282;23;98116;-75
2022/11/16 13:24:18;;;;;;;9.05;2.58;;;16.30;99.90;;;;;;6125301;23;95366;-74
2022/11/16 13:27:19;;;;;;;6.22;1.92;;;16.30;99.90;;;;;;6124895;23;92374;-74
2022/11/16 13:30:17;;;;;;;6.53;2.20;;;16.20;99.90;;;;;;6125362;23;92393;-74
2022/11/16 13:33:15;;;;;;;8.85;2.85;;;16.10;99.90;;;;;;6075927;23;93229;-74
2022/11/16 13:35:42;;;;;;;4.25;2.15;;;16.00;99.90;;;;;;6097679;23;95369;-74
2022/11/16 13:38:13;;;;;;;5.13;2.15;;;15.90;99.90;;;;;;6125429;23;92377;-74
2022/11/16 13:40:41;;;;;;;8.23;2.00;;;15.90;99.90;;;;;;6125937;23;91539;-74
2022/11/16 13:43:11;;;;;;;9.25;2.38;;;15.80;99.90;;;;;;6098901;23;94599;-74
2022/11/16 13:45:43;;;;;;;5.60;2.78;;;15.70;99.90;;;;;;6098222;23;95729;-74
2022/11/16 13:48:34;;;;;;;6.60;2.50;;;15.60;99.90;;;;;;6072613;23;95302;-74
2022/11/16 13:51:05;;;;;;;8.90;3.05;;;15.60;99.90;;;;;;6085779;23;92475;-74
2022/11/16 13:53:35;;;;;;;7.65;2.42;;;15.50;99.90;;;;;;6123046;23;94223;-74